CheckWX is a tool to help pilots better visualize weather data.  It is not intended as a substitute for an official pre-flight weather briefing.

08:14:49 UTC

KRNO TAF
Reno / Tahoe International Airport
Reno, Nevada, USA
KRNO 190534Z 1906/2006 VRB04KT P6SM SCT200 FM192100 17009KT P6SM SCT130 BKN180

Mar-19@
06:00 UTC

Mar-19 @ 06:00 UTC

Mar-19@
21:00 UTC

Mar-19 @ 21:00 UTC

KRNO 190534Z 1906/2006 VRB04KT P6SM SCT200
Wind
  • Variable at 4 KTS
Cloud Levels
  • Scattered at 20,000' AGL

Mar-19@
21:00 UTC

Mar-19 @ 21:00 UTC

Mar-20@
06:00 UTC

Mar-20 @ 06:00 UTC

FM192100 17009KT P6SM SCT130 BKN180

From

From Standard forecast or significant change

Wind
  • 170° at 9 KTS
Cloud Levels
  • Scattered at 13,000' AGL
  • Broken at 18,000' AGL